createdAt,value
2018-09-02T00:04:19.030Z,19.75
2018-09-02T00:09:11.851Z,19.69
2018-09-02T00:14:04.434Z,19.61
2018-09-02T00:18:57.151Z,19.55
2018-09-02T00:23:49.686Z,19.48
2018-09-02T00:28:42.248Z,19.41
2018-09-02T00:33:34.815Z,19.35
2018-09-02T00:38:27.354Z,19.29
2018-09-02T00:43:20.064Z,19.24
2018-09-02T00:48:12.748Z,19.18
2018-09-02T00:53:05.387Z,19.12
2018-09-02T00:57:57.947Z,19.07
2018-09-02T01:02:50.579Z,19.00
2018-09-02T01:07:43.164Z,18.94
2018-09-02T01:12:35.870Z,18.90
2018-09-02T01:17:28.507Z,18.86
2018-09-02T01:22:21.082Z,18.80
2018-09-02T01:27:13.678Z,18.74
2018-09-02T01:32:06.243Z,18.66
2018-09-02T01:36:58.868Z,18.60
2018-09-02T01:41:51.402Z,18.53
2018-09-02T01:46:44.045Z,18.48
2018-09-02T01:51:36.628Z,18.45
2018-09-02T01:56:35.112Z,18.38
2018-09-02T02:01:27.742Z,18.30
2018-09-02T02:06:20.356Z,18.24
2018-09-02T02:11:12.890Z,18.20
2018-09-02T02:16:05.798Z,18.11
2018-09-02T02:20:58.301Z,18.08
2018-09-02T02:25:51.027Z,18.05
2018-09-02T02:30:43.610Z,18.02
2018-09-02T02:35:36.216Z,17.99
2018-09-02T02:40:28.849Z,17.94
2018-09-02T02:45:21.403Z,17.92
2018-09-02T02:50:14.115Z,17.89
2018-09-02T02:55:07.039Z,17.88
2018-09-02T02:59:59.609Z,17.88
2018-09-02T03:04:52.092Z,17.89
2018-09-02T03:09:44.552Z,17.90
2018-09-02T03:14:36.999Z,17.86
2018-09-02T03:19:29.603Z,17.85
2018-09-02T03:24:22.184Z,17.86
2018-09-02T03:29:15.049Z,17.83
2018-09-02T03:34:07.626Z,17.82
2018-09-02T03:39:00.204Z,17.79
2018-09-02T03:43:52.798Z,17.74
2018-09-02T03:48:45.374Z,17.68
2018-09-02T03:53:37.925Z,17.64
2018-09-02T03:58:30.475Z,17.59
2018-09-02T04:03:23.047Z,17.54
2018-09-02T04:08:15.748Z,17.53
2018-09-02T04:13:08.331Z,17.46
2018-09-02T04:18:00.929Z,17.42
2018-09-02T04:22:53.500Z,17.36
2018-09-02T04:27:46.115Z,17.33
2018-09-02T04:32:38.933Z,17.28
2018-09-02T04:37:31.535Z,17.23
2018-09-02T04:42:24.098Z,17.19
2018-09-02T04:47:16.708Z,17.16
2018-09-02T04:52:09.312Z,17.15
2018-09-02T04:57:01.899Z,17.14
2018-09-02T05:01:54.497Z,17.09
2018-09-02T05:06:47.175Z,17.03
2018-09-02T05:11:39.766Z,16.99
2018-09-02T05:16:32.471Z,16.98
2018-09-02T05:21:25.399Z,16.99
2018-09-02T05:26:18.024Z,16.97
2018-09-02T05:31:10.587Z,16.98
2018-09-02T05:36:03.116Z,16.96
2018-09-02T05:40:55.741Z,16.94
2018-09-02T05:45:48.359Z,16.92
2018-09-02T05:50:40.888Z,16.88
2018-09-02T05:55:33.535Z,16.87
2018-09-02T06:00:26.110Z,16.90
2018-09-02T06:05:25.977Z,16.92
2018-09-02T06:10:18.569Z,16.92
2018-09-02T06:15:11.260Z,16.95
2018-09-02T06:20:03.890Z,16.96
2018-09-02T06:24:56.447Z,16.95
2018-09-02T06:29:49.140Z,16.95
2018-09-02T06:34:41.784Z,16.97
2018-09-02T06:39:34.437Z,16.98
2018-09-02T06:44:26.963Z,17.02
2018-09-02T06:49:19.555Z,17.05
2018-09-02T06:54:12.107Z,17.10
2018-09-02T06:59:04.704Z,17.17
2018-09-02T07:03:57.226Z,17.24
2018-09-02T07:08:49.731Z,17.38
2018-09-02T07:13:42.308Z,17.74
2018-09-02T07:18:34.991Z,17.94
2018-09-02T07:23:27.690Z,17.96
2018-09-02T07:28:20.267Z,17.91
2018-09-02T07:33:12.900Z,17.87
2018-09-02T07:38:05.514Z,17.86
2018-09-02T07:42:58.062Z,17.86
2018-09-02T07:47:50.676Z,17.87
2018-09-02T07:52:43.362Z,17.90
2018-09-02T07:57:35.899Z,17.94
2018-09-02T08:02:28.721Z,17.97
2018-09-02T08:07:21.306Z,18.02
2018-09-02T08:12:13.914Z,18.10
2018-09-02T08:17:06.621Z,18.16
2018-09-02T08:21:59.306Z,18.23
2018-09-02T08:26:51.906Z,18.30
2018-09-02T08:31:44.514Z,18.33
2018-09-02T08:36:37.406Z,18.38
2018-09-02T08:41:30.012Z,18.39
2018-09-02T08:46:22.613Z,18.43
2018-09-02T08:51:15.261Z,18.44
2018-09-02T08:56:07.927Z,18.45
2018-09-02T09:01:00.535Z,18.44
2018-09-02T09:05:53.249Z,18.44
2018-09-02T09:10:45.898Z,18.46
2018-09-02T09:15:38.552Z,18.50
2018-09-02T09:20:31.164Z,18.51
2018-09-02T09:25:23.843Z,18.53
2018-09-02T09:30:16.418Z,18.57
2018-09-02T09:35:08.891Z,18.59
2018-09-02T09:40:01.762Z,18.62
2018-09-02T09:44:54.361Z,18.65
2018-09-02T09:49:46.954Z,18.68
2018-09-02T09:54:39.547Z,18.72
2018-09-02T09:59:32.289Z,18.74
2018-09-02T10:04:24.869Z,18.80
2018-09-02T10:09:17.495Z,18.84
2018-09-02T10:14:10.617Z,18.86
2018-09-02T10:19:03.375Z,18.88
2018-09-02T10:23:55.963Z,18.90
2018-09-02T10:28:48.583Z,18.93
2018-09-02T10:33:41.249Z,18.95
2018-09-02T10:38:33.892Z,18.97
2018-09-02T10:43:26.483Z,18.99
2018-09-02T10:48:19.026Z,19.01
2018-09-02T10:53:11.584Z,19.03
2018-09-02T10:58:04.441Z,19.05
2018-09-02T11:02:57.015Z,19.08
2018-09-02T11:07:49.641Z,19.11
2018-09-02T11:12:42.293Z,19.17
2018-09-02T11:17:34.971Z,19.20
2018-09-02T11:22:27.694Z,19.25
2018-09-02T11:27:20.201Z,19.30
2018-09-02T11:32:12.919Z,19.35
2018-09-02T11:37:05.730Z,19.41
2018-09-02T11:41:58.354Z,19.46
2018-09-02T11:46:51.010Z,19.53
2018-09-02T11:51:43.531Z,19.58
2018-09-02T11:56:36.190Z,19.66
2018-09-02T12:01:28.959Z,19.75
2018-09-02T12:06:21.540Z,19.85
2018-09-02T12:11:14.204Z,19.94
2018-09-02T12:16:07.079Z,20.04
2018-09-02T12:20:59.730Z,20.16
2018-09-02T12:25:52.443Z,20.24
2018-09-02T12:30:45.363Z,20.30
2018-09-02T12:35:37.915Z,20.36
2018-09-02T12:40:30.478Z,20.41
2018-09-02T12:45:23.139Z,20.45
2018-09-02T12:50:15.939Z,20.50
2018-09-02T12:55:08.760Z,20.57
2018-09-02T13:00:01.602Z,20.66
2018-09-02T13:04:54.317Z,20.83
2018-09-02T13:09:47.049Z,21.04
2018-09-02T13:14:39.720Z,21.27
2018-09-02T13:19:32.309Z,21.53
2018-09-02T13:24:25.860Z,21.76
2018-09-02T13:29:18.650Z,21.90
2018-09-02T13:34:11.506Z,21.94
2018-09-02T13:39:06.683Z,21.94
2018-09-02T13:43:59.420Z,21.98
2018-09-02T13:48:52.999Z,22.01
2018-09-02T13:53:45.798Z,22.04
2018-09-02T13:58:38.777Z,22.08
2018-09-02T14:03:31.535Z,22.11
2018-09-02T14:08:24.120Z,22.15
2018-09-02T14:13:16.792Z,22.20
2018-09-02T14:18:09.929Z,22.25
2018-09-02T14:23:02.553Z,22.31
2018-09-02T14:27:55.227Z,22.36
2018-09-02T14:32:47.806Z,22.45
2018-09-02T14:43:05.796Z,22.60
2018-09-02T14:48:05.175Z,22.64
2018-09-02T14:52:57.964Z,22.70
2018-09-02T14:57:50.666Z,22.73
2018-09-02T15:02:43.262Z,22.75
2018-09-02T15:07:35.812Z,22.76
2018-09-02T15:12:28.392Z,22.77
2018-09-02T15:17:21.278Z,22.79
2018-09-02T15:22:14.266Z,22.79
2018-09-02T15:27:07.489Z,22.80
2018-09-02T15:32:00.494Z,22.82
2018-09-02T15:36:53.202Z,22.82
2018-09-02T15:41:45.786Z,22.82
2018-09-02T15:46:38.345Z,22.82
2018-09-02T15:51:31.121Z,22.82
2018-09-02T15:56:23.833Z,22.85
2018-09-02T16:01:16.409Z,22.85
2018-09-02T16:06:09.015Z,22.84
2018-09-02T16:11:01.628Z,22.84
2018-09-02T16:15:54.358Z,22.84
2018-09-02T16:20:46.951Z,22.85
2018-09-02T16:25:39.548Z,22.85
2018-09-02T16:30:32.161Z,22.84
2018-09-02T16:35:24.707Z,22.83
2018-09-02T16:40:17.328Z,22.83
2018-09-02T16:45:10.167Z,22.83
2018-09-02T16:50:02.769Z,22.81
2018-09-02T16:54:55.385Z,22.81
2018-09-02T16:59:47.951Z,22.78
2018-09-02T17:04:42.212Z,22.78
2018-09-02T17:09:34.938Z,22.76
2018-09-02T17:14:27.597Z,22.76
2018-09-02T17:26:49.312Z,22.73
2018-09-02T17:31:42.067Z,22.72
2018-09-02T17:36:34.775Z,22.70
2018-09-02T17:41:27.483Z,22.69
2018-09-02T17:46:20.313Z,22.67
2018-09-02T17:51:12.875Z,22.67
2018-09-02T17:56:05.562Z,22.66
2018-09-02T18:00:59.003Z,22.64
2018-09-02T18:05:51.644Z,22.64
2018-09-02T18:10:44.217Z,22.62
2018-09-02T18:15:36.946Z,22.61
2018-09-02T18:20:29.542Z,22.60
2018-09-02T18:25:22.086Z,22.56
2018-09-02T18:30:14.745Z,22.55
2018-09-02T18:35:07.354Z,22.54
2018-09-02T18:40:00.015Z,22.51
2018-09-02T18:44:52.676Z,22.50
2018-09-02T18:49:45.814Z,22.49
2018-09-02T18:54:38.510Z,22.47
2018-09-02T18:59:31.094Z,22.46
2018-09-02T19:04:23.777Z,22.45
2018-09-02T19:09:16.413Z,22.43
2018-09-02T19:14:09.012Z,22.41
2018-09-02T19:23:54.071Z,22.37
2018-09-02T19:28:46.738Z,22.34
2018-09-02T19:33:39.518Z,22.31
2018-09-02T19:38:32.150Z,22.28
2018-09-02T19:43:25.815Z,22.26
2018-09-02T19:48:19.339Z,22.22
2018-09-02T19:53:12.238Z,22.17
2018-09-02T19:58:04.864Z,22.14
2018-09-02T20:02:57.609Z,22.09
2018-09-02T20:07:50.295Z,22.04
2018-09-02T20:12:42.879Z,21.99
2018-09-02T20:17:35.667Z,21.94
2018-09-02T20:22:28.446Z,21.91
2018-09-02T20:27:21.078Z,21.88
2018-09-02T20:32:13.679Z,21.85
2018-09-02T20:37:06.415Z,21.81
2018-09-02T20:41:59.057Z,21.78
2018-09-02T20:46:51.614Z,21.76
2018-09-02T20:51:44.174Z,21.74
2018-09-02T20:56:36.784Z,21.70
2018-09-02T21:01:29.464Z,21.68
2018-09-02T21:06:22.138Z,21.65
2018-09-02T21:11:14.709Z,21.62
2018-09-02T21:16:07.347Z,21.60
2018-09-02T21:20:59.903Z,21.57
2018-09-02T21:25:52.522Z,21.55
2018-09-02T21:30:45.041Z,21.52
2018-09-02T21:35:37.645Z,21.47
2018-09-02T21:40:30.239Z,21.47
2018-09-02T21:45:22.902Z,21.45
2018-09-02T21:50:15.615Z,21.42
2018-09-02T21:55:08.251Z,21.39
2018-09-02T22:00:00.838Z,21.38
2018-09-02T22:04:53.390Z,21.38
2018-09-02T22:09:45.959Z,21.36
2018-09-02T22:14:38.716Z,21.33
2018-09-02T22:19:31.608Z,21.33
2018-09-02T22:24:24.219Z,21.32
2018-09-02T22:29:16.979Z,21.33
2018-09-02T22:34:09.552Z,21.32
2018-09-02T22:39:02.314Z,21.33
2018-09-02T22:43:54.911Z,21.32
2018-09-02T22:48:47.582Z,21.32
2018-09-02T22:53:40.393Z,21.31
2018-09-02T22:58:33.384Z,21.30
2018-09-02T23:03:25.851Z,21.31
2018-09-02T23:08:18.365Z,21.31
2018-09-02T23:13:10.901Z,21.31
2018-09-02T23:18:03.488Z,21.30
2018-09-02T23:22:56.201Z,21.29
2018-09-02T23:27:48.777Z,21.30
2018-09-02T23:32:41.373Z,21.28
2018-09-02T23:37:33.957Z,21.26
2018-09-02T23:42:26.523Z,21.27
2018-09-02T23:47:19.138Z,21.27
2018-09-02T23:52:11.736Z,21.25
2018-09-02T23:57:04.471Z,21.25
